Time;durP1;ratioP1;P1;durP2;ratioP2;P2;SDS_P1;SDS_P2;PMS_P1;PMS_P2;Temp;Humidity;BMP_temperature;BMP_pressure;BME280_temperature;BME280_humidity;BME280_pressure;Samples;Min_cycle;Max_cycle;Signal;HPM_P1;HPM_P2
2021/01/02 00:04:51;;;;;;;11.75;10.38;;;;;;;;;;4725419;28;20438;-59
2021/01/02 00:07:32;;;;;;;12.25;10.95;;;;;;;;;;4192585;34;20121;-60
2021/01/02 00:10:00;;;;;;;11.10;9.93;;;;;;;;;;4192229;34;20106;-60
2021/01/02 00:12:56;;;;;;;10.43;9.20;;;;;;;;;;4179619;34;20764;-60
2021/01/02 00:15:49;;;;;;;10.50;9.27;;;;;;;;;;4192180;34;20534;-60
2021/01/02 00:18:22;;;;;;;10.30;9.30;;;;;;;;;;4181155;34;20213;-60
2021/01/02 00:20:54;;;;;;;9.75;8.82;;;;;;;;;;4179448;34;20206;-60
2021/01/02 00:23:41;;;;;;;10.00;9.00;;;;;;;;;;4192233;34;20116;-60
2021/01/02 00:26:44;;;;;;;9.88;8.98;;;;;;;;;;4192057;34;20141;-60
2021/01/02 00:29:16;;;;;;;10.63;9.55;;;;;;;;;;4189690;34;20177;-60
2021/01/02 00:32:18;;;;;;;10.13;9.10;;;;;;;;;;4179586;34;20114;-60
2021/01/02 00:34:50;;;;;;;9.88;8.88;;;;;;;;;;4190544;34;20534;-60
2021/01/02 00:37:36;;;;;;;9.93;8.93;;;;;;;;;;4192115;34;20117;-60
2021/01/02 00:40:05;;;;;;;10.63;9.52;;;;;;;;;;4192026;34;20122;-60
2021/01/02 00:42:32;;;;;;;10.27;9.27;;;;;;;;;;4192187;34;20098;-60
2021/01/02 00:44:59;;;;;;;10.88;9.73;;;;;;;;;;4191836;34;20114;-60
2021/01/02 00:47:29;;;;;;;9.45;8.55;;;;;;;;;;4178633;34;20122;-60
2021/01/02 00:49:55;;;;;;;10.20;9.13;;;;;;;;;;4179192;34;20106;-60
2021/01/02 00:52:30;;;;;;;10.25;8.98;;;;;;;;;;4191983;34;20086;-60
2021/01/02 00:55:18;;;;;;;10.90;9.80;;;;;;;;;;4191692;34;20126;-60
2021/01/02 00:57:47;;;;;;;10.40;9.38;;;;;;;;;;4191957;34;20208;-60
2021/01/02 01:00:13;;;;;;;9.18;8.27;;;;;;;;;;4191876;34;20284;-60
2021/01/02 01:03:06;;;;;;;10.38;9.38;;;;;;;;;;4179212;34;20193;-60
2021/01/02 01:05:38;;;;;;;11.38;8.98;;;;;;;;;;4180731;34;20119;-60
2021/01/02 01:08:05;;;;;;;11.43;9.73;;;;;;;;;;4191850;34;20506;-60
2021/01/02 01:10:35;;;;;;;9.98;9.02;;;;;;;;;;4191786;34;20118;-60
2021/01/02 01:13:14;;;;;;;10.13;9.13;;;;;;;;;;4191820;34;20141;-60
2021/01/02 01:15:40;;;;;;;10.63;9.25;;;;;;;;;;4191713;34;20136;-60
2021/01/02 01:18:15;;;;;;;9.63;8.70;;;;;;;;;;4167651;34;20122;-60
2021/01/02 01:21:01;;;;;;;10.20;9.10;;;;;;;;;;4178922;34;20114;-60
2021/01/02 01:23:31;;;;;;;9.57;8.60;;;;;;;;;;4191804;34;20122;-60
2021/01/02 01:26:21;;;;;;;9.48;8.57;;;;;;;;;;4178787;34;20129;-58
2021/01/02 01:28:47;;;;;;;10.35;9.35;;;;;;;;;;4191701;34;20571;-60
2021/01/02 01:31:17;;;;;;;9.60;8.60;;;;;;;;;;4191733;34;20126;-60
2021/01/02 01:33:48;;;;;;;10.85;9.05;;;;;;;;;;4191532;34;20117;-60
2021/01/02 01:36:20;;;;;;;10.13;8.60;;;;;;;;;;4179149;34;20101;-60
2021/01/02 01:38:55;;;;;;;10.50;9.20;;;;;;;;;;4191823;34;20140;-60
2021/01/02 01:41:36;;;;;;;9.55;8.55;;;;;;;;;;4191714;34;20098;-60
2021/01/02 01:44:05;;;;;;;10.23;8.93;;;;;;;;;;4191375;34;20463;-59
2021/01/02 01:46:51;;;;;;;9.88;8.80;;;;;;;;;;4191822;34;20270;-60
2021/01/02 01:49:29;;;;;;;10.25;9.25;;;;;;;;;;4179672;34;20165;-60
2021/01/02 01:51:59;;;;;;;11.07;9.40;;;;;;;;;;4191694;34;20122;-60
2021/01/02 01:55:00;;;;;;;9.60;8.70;;;;;;;;;;4191519;34;20110;-60
2021/01/02 01:57:27;;;;;;;11.00;8.95;;;;;;;;;;4178842;34;20439;-60
2021/01/02 01:59:58;;;;;;;8.82;8.02;;;;;;;;;;4191585;34;20118;-60
2021/01/02 02:02:39;;;;;;;9.55;8.55;;;;;;;;;;4191455;34;20257;-60
2021/01/02 02:05:06;;;;;;;9.70;8.80;;;;;;;;;;4190995;34;20474;-60
2021/01/02 02:08:02;;;;;;;9.68;8.50;;;;;;;;;;4191373;34;20106;-60
2021/01/02 02:10:47;;;;;;;10.32;9.32;;;;;;;;;;4175749;34;20133;-60
2021/01/02 02:13:13;;;;;;;10.25;9.25;;;;;;;;;;4191370;34;20106;-60
2021/01/02 02:15:49;;;;;;;9.77;8.50;;;;;;;;;;4191296;34;20106;-60
2021/01/02 02:18:22;;;;;;;10.65;8.75;;;;;;;;;;4191340;34;20103;-60
2021/01/02 02:20:52;;;;;;;10.05;9.05;;;;;;;;;;4178696;34;20463;-59
2021/01/02 02:23:42;;;;;;;9.77;8.88;;;;;;;;;;4191289;34;20620;-60
2021/01/02 02:26:30;;;;;;;9.90;8.90;;;;;;;;;;4191256;34;20110;-59
2021/01/02 02:29:22;;;;;;;9.50;8.50;;;;;;;;;;4178462;34;20128;-60
2021/01/02 02:31:48;;;;;;;9.90;8.20;;;;;;;;;;4191315;34;20134;-60
2021/01/02 02:34:14;;;;;;;9.38;8.30;;;;;;;;;;4178197;34;20105;-60
2021/01/02 02:36:41;;;;;;;11.38;8.57;;;;;;;;;;4191169;34;20109;-59
2021/01/02 02:39:10;;;;;;;8.65;7.75;;;;;;;;;;4190980;34;20229;-59
2021/01/02 02:41:46;;;;;;;10.27;8.10;;;;;;;;;;4178596;34;20114;-60
2021/01/02 02:44:12;;;;;;;9.57;8.18;;;;;;;;;;4179102;34;20118;-60
2021/01/02 02:46:44;;;;;;;12.27;8.40;;;;;;;;;;4167270;34;20209;-61
2021/01/02 02:49:12;;;;;;;8.93;8.02;;;;;;;;;;4190888;34;20189;-60
2021/01/02 02:52:10;;;;;;;8.82;7.93;;;;;;;;;;4191047;34;20122;-59
2021/01/02 02:54:36;;;;;;;8.50;7.68;;;;;;;;;;4180027;34;20126;-59
2021/01/02 02:57:02;;;;;;;9.35;8.40;;;;;;;;;;4178266;34;20154;-59
2021/01/02 02:59:27;;;;;;;9.77;8.57;;;;;;;;;;4177954;34;20110;-59
2021/01/02 03:01:53;;;;;;;8.50;7.70;;;;;;;;;;4190859;34;20106;-60
2021/01/02 03:04:19;;;;;;;8.38;7.50;;;;;;;;;;4190540;34;20249;-60
2021/01/02 03:06:45;;;;;;;8.93;7.95;;;;;;;;;;4178127;34;20205;-60
2021/01/02 03:09:11;;;;;;;8.93;7.87;;;;;;;;;;4177414;34;20124;-60
2021/01/02 03:11:40;;;;;;;9.10;8.20;;;;;;;;;;4190822;34;20109;-60
2021/01/02 03:14:06;;;;;;;10.30;7.82;;;;;;;;;;4166730;34;20118;-60
2021/01/02 03:16:32;;;;;;;10.32;8.18;;;;;;;;;;4190701;34;20218;-60
2021/01/02 03:18:58;;;;;;;10.93;8.20;;;;;;;;;;4190657;34;20201;-60
2021/01/02 03:21:24;;;;;;;8.77;7.90;;;;;;;;;;4190873;34;20122;-59
2021/01/02 03:23:50;;;;;;;8.45;7.55;;;;;;;;;;4190629;34;20117;-60
2021/01/02 03:26:16;;;;;;;9.10;8.20;;;;;;;;;;4190497;34;20177;-60
2021/01/02 03:28:51;;;;;;;9.57;8.07;;;;;;;;;;4190797;34;20125;-59
2021/01/02 03:31:18;;;;;;;8.68;7.78;;;;;;;;;;4190524;34;20128;-60
2021/01/02 03:33:44;;;;;;;8.98;8.05;;;;;;;;;;4190472;34;20258;-60
2021/01/02 03:36:10;;;;;;;8.80;7.62;;;;;;;;;;4177666;34;20133;-60
2021/01/02 03:38:36;;;;;;;9.25;7.78;;;;;;;;;;4190774;34;20121;-60
2021/01/02 03:41:02;;;;;;;8.95;7.35;;;;;;;;;;4190340;34;20129;-59
2021/01/02 03:43:28;;;;;;;9.15;7.32;;;;;;;;;;4190489;34;20228;-60
2021/01/02 03:45:54;;;;;;;10.68;7.62;;;;;;;;;;4190471;34;20129;-58
2021/01/02 03:48:20;;;;;;;8.73;7.70;;;;;;;;;;4190521;34;20154;-59
2021/01/02 03:50:46;;;;;;;8.77;7.70;;;;;;;;;;4177534;34;20202;-59
2021/01/02 03:53:12;;;;;;;8.20;7.40;;;;;;;;;;4177526;34;20129;-60
2021/01/02 03:55:38;;;;;;;9.95;7.95;;;;;;;;;;4190168;34;20133;-59
2021/01/02 03:58:03;;;;;;;8.68;7.72;;;;;;;;;;4190269;34;20106;-59
2021/01/02 04:00:29;;;;;;;7.93;7.12;;;;;;;;;;4190160;34;20102;-59
2021/01/02 04:02:55;;;;;;;8.25;7.43;;;;;;;;;;4190080;34;20128;-60
2021/01/02 04:05:21;;;;;;;7.97;7.22;;;;;;;;;;4177326;34;20473;-60
2021/01/02 04:07:47;;;;;;;9.50;7.80;;;;;;;;;;4190149;34;20122;-59
2021/01/02 04:10:13;;;;;;;8.00;7.20;;;;;;;;;;4190033;34;20209;-59
2021/01/02 04:12:39;;;;;;;9.82;7.00;;;;;;;;;;4190185;34;20102;-60
2021/01/02 04:15:06;;;;;;;10.00;8.05;;;;;;;;;;4189973;34;20137;-60
2021/01/02 04:17:32;;;;;;;8.48;7.65;;;;;;;;;;4190367;34;20137;-60
2021/01/02 04:19:57;;;;;;;8.10;7.30;;;;;;;;;;4177206;34;20546;-59
2021/01/02 04:22:23;;;;;;;8.38;7.50;;;;;;;;;;4191386;34;20112;-60
2021/01/02 04:24:49;;;;;;;7.93;6.97;;;;;;;;;;4192296;34;20193;-61
2021/01/02 04:27:15;;;;;;;10.20;7.87;;;;;;;;;;4192439;34;20114;-60
2021/01/02 04:29:41;;;;;;;8.48;7.55;;;;;;;;;;4192125;34;20126;-60
2021/01/02 04:32:26;;;;;;;8.30;7.43;;;;;;;;;;4192158;34;20126;-60
2021/01/02 04:34:52;;;;;;;7.82;7.03;;;;;;;;;;4180418;34;20411;-60
2021/01/02 04:37:18;;;;;;;8.35;7.40;;;;;;;;;;4192051;34;20104;-60
2021/01/02 04:39:44;;;;;;;8.82;7.93;;;;;;;;;;4192140;34;20118;-60
2021/01/02 04:42:10;;;;;;;7.57;6.70;;;;;;;;;;4179397;34;20130;-59
2021/01/02 04:44:36;;;;;;;8.70;7.68;;;;;;;;;;4191938;34;20118;-60
2021/01/02 04:47:02;;;;;;;7.95;7.15;;;;;;;;;;4167906;34;20526;-60
2021/01/02 04:49:28;;;;;;;8.95;7.65;;;;;;;;;;4191878;34;20128;-60
2021/01/02 04:52:00;;;;;;;7.82;7.03;;;;;;;;;;4192169;34;20130;-60
2021/01/02 04:54:26;;;;;;;8.05;7.25;;;;;;;;;;4191909;34;20209;-60
2021/01/02 04:56:52;;;;;;;8.15;7.35;;;;;;;;;;4179207;34;20137;-60
2021/01/02 04:59:18;;;;;;;8.30;7.35;;;;;;;;;;4192039;34;20590;-60
2021/01/02 05:01:48;;;;;;;8.98;7.53;;;;;;;;;;4179049;34;20108;-60
2021/01/02 05:04:14;;;;;;;8.73;7.30;;;;;;;;;;4179073;34;20117;-60
2021/01/02 05:06:40;;;;;;;9.32;7.18;;;;;;;;;;4191869;34;20105;-60
2021/01/02 05:09:06;;;;;;;10.38;5.95;;;;;;;;;;4191904;34;20098;-60
2021/01/02 05:11:36;;;;;;;8.48;6.95;;;;;;;;;;4191762;34;20528;-60
2021/01/02 05:14:02;;;;;;;7.97;7.15;;;;;;;;;;4191575;34;20542;-60
2021/01/02 05:16:36;;;;;;;7.95;6.85;;;;;;;;;;4191847;34;20113;-60
2021/01/02 05:19:04;;;;;;;7.50;6.55;;;;;;;;;;4191548;34;20102;-60
2021/01/02 05:21:30;;;;;;;7.90;7.10;;;;;;;;;;4191731;34;20113;-60
2021/01/02 05:24:15;;;;;;;7.47;6.55;;;;;;;;;;4191765;34;20109;-59
2021/01/02 05:26:45;;;;;;;8.95;6.53;;;;;;;;;;4191692;34;20121;-60
2021/01/02 05:29:18;;;;;;;8.32;6.53;;;;;;;;;;4191608;34;20102;-60
2021/01/02 05:31:46;;;;;;;7.25;6.55;;;;;;;;;;4179010;34;20440;-60
2021/01/02 05:34:12;;;;;;;7.75;6.57;;;;;;;;;;4191208;34;20110;-61
2021/01/02 05:36:39;;;;;;;6.85;6.05;;;;;;;;;;4191574;34;20128;-60
2021/01/02 05:39:05;;;;;;;7.60;6.80;;;;;;;;;;4191350;34;20102;-60
2021/01/02 05:41:54;;;;;;;8.25;6.65;;;;;;;;;;4191621;34;20291;-59
2021/01/02 05:44:20;;;;;;;7.32;6.50;;;;;;;;;;4191878;34;20729;-60
2021/01/02 05:46:48;;;;;;;6.90;6.20;;;;;;;;;;4191622;34;20094;-60
2021/01/02 05:49:30;;;;;;;7.90;7.10;;;;;;;;;;4178763;34;20153;-60
2021/01/02 05:52:00;;;;;;;9.98;6.43;;;;;;;;;;4191442;34;20541;-60
2021/01/02 05:54:26;;;;;;;7.45;6.75;;;;;;;;;;4191511;34;20221;-59
2021/01/02 05:56:55;;;;;;;7.32;6.62;;;;;;;;;;4191375;34;20553;-60
2021/01/02 05:59:31;;;;;;;9.77;7.12;;;;;;;;;;4191306;34;20137;-60
2021/01/02 06:01:58;;;;;;;7.22;6.40;;;;;;;;;;4179185;34;20154;-60
2021/01/02 06:04:23;;;;;;;9.10;7.37;;;;;;;;;;4178360;34;20118;-60
2021/01/02 06:07:07;;;;;;;8.80;6.90;;;;;;;;;;4191347;34;20461;-61
2021/01/02 06:09:34;;;;;;;6.30;5.68;;;;;;;;;;4191243;34;20218;-59
2021/01/02 06:12:02;;;;;;;7.70;6.00;;;;;;;;;;4191506;34;20466;-60
2021/01/02 06:14:32;;;;;;;7.87;6.95;;;;;;;;;;4191287;34;20124;-60
2021/01/02 06:16:57;;;;;;;7.12;6.28;;;;;;;;;;4178700;34;20121;-60
2021/01/02 06:19:23;;;;;;;6.55;5.90;;;;;;;;;;4191130;34;20133;-60
2021/01/02 06:21:49;;;;;;;8.00;7.20;;;;;;;;;;4167070;34;20198;-60
2021/01/02 06:24:15;;;;;;;8.20;6.35;;;;;;;;;;4191099;34;20129;-60
2021/01/02 06:26:41;;;;;;;6.43;5.82;;;;;;;;;;4167223;34;20118;-60
2021/01/02 06:29:08;;;;;;;8.10;5.95;;;;;;;;;;4178246;34;20129;-60
2021/01/02 06:31:34;;;;;;;7.25;5.90;;;;;;;;;;4191157;34;20098;-59
2021/01/02 06:34:00;;;;;;;7.20;6.00;;;;;;;;;;4167162;34;20193;-59
2021/01/02 06:36:33;;;;;;;9.00;6.25;;;;;;;;;;4166847;34;20116;-60
2021/01/02 06:39:21;;;;;;;7.65;6.68;;;;;;;;;;4191034;34;20107;-60
2021/01/02 06:41:48;;;;;;;8.15;6.43;;;;;;;;;;4191155;34;20129;-59
2021/01/02 06:44:40;;;;;;;8.13;6.53;;;;;;;;;;4190411;34;20112;-60
2021/01/02 06:47:14;;;;;;;6.93;6.07;;;;;;;;;;4190969;34;20183;-60
2021/01/02 06:49:39;;;;;;;9.27;6.32;;;;;;;;;;4190988;34;20109;-60
2021/01/02 06:52:05;;;;;;;9.52;6.53;;;;;;;;;;4178118;34;20518;-59
2021/01/02 06:54:31;;;;;;;8.57;6.47;;;;;;;;;;4190845;34;20137;-59
2021/01/02 06:57:02;;;;;;;8.90;6.10;;;;;;;;;;4191145;34;20132;-60
2021/01/02 06:59:27;;;;;;;8.65;6.45;;;;;;;;;;4190638;34;20101;-60
2021/01/02 07:01:53;;;;;;;11.57;7.05;;;;;;;;;;4190947;34;20169;-60
2021/01/02 07:04:33;;;;;;;10.57;6.65;;;;;;;;;;4190677;34;20580;-60
2021/01/02 07:06:59;;;;;;;9.05;5.97;;;;;;;;;;4190582;34;20221;-61
2021/01/02 07:09:25;;;;;;;8.73;6.28;;;;;;;;;;4177834;34;20214;-60
2021/01/02 07:12:12;;;;;;;8.52;5.95;;;;;;;;;;4190739;34;20134;-60
2021/01/02 07:14:39;;;;;;;6.57;5.90;;;;;;;;;;4177906;34;20106;-60
2021/01/02 07:17:12;;;;;;;7.25;5.95;;;;;;;;;;4190894;34;20431;-59
2021/01/02 07:19:38;;;;;;;7.00;6.30;;;;;;;;;;4190544;34;20141;-60
2021/01/02 07:22:17;;;;;;;10.30;6.80;;;;;;;;;;4190579;34;20125;-60
2021/01/02 07:24:57;;;;;;;9.85;6.57;;;;;;;;;;4190513;34;20097;-60
2021/01/02 07:27:30;;;;;;;7.60;5.82;;;;;;;;;;4190626;34;20105;-60
2021/01/02 07:30:04;;;;;;;7.30;6.30;;;;;;;;;;4190343;34;20134;-60
2021/01/02 07:32:31;;;;;;;7.12;6.43;;;;;;;;;;4190599;34;20105;-58
2021/01/02 07:35:01;;;;;;;7.68;5.82;;;;;;;;;;4190571;34;20121;-60
2021/01/02 07:37:28;;;;;;;9.30;6.15;;;;;;;;;;4190553;34;20109;-59
2021/01/02 07:40:14;;;;;;;8.07;6.53;;;;;;;;;;4190430;34;20519;-60
2021/01/02 07:42:41;;;;;;;7.65;6.15;;;;;;;;;;4190484;34;20114;-60
2021/01/02 07:45:11;;;;;;;12.73;6.25;;;;;;;;;;4177514;34;20149;-60
2021/01/02 07:47:50;;;;;;;9.75;6.22;;;;;;;;;;4190507;34;20592;-60
2021/01/02 07:50:18;;;;;;;9.68;6.65;;;;;;;;;;4177849;34;20196;-60
2021/01/02 07:52:52;;;;;;;9.60;7.87;;;;;;;;;;4190261;34;20285;-59
2021/01/02 07:55:36;;;;;;;10.48;6.57;;;;;;;;;;4190659;34;20122;-60
2021/01/02 07:58:02;;;;;;;8.45;6.30;;;;;;;;;;4192590;34;20447;-60
2021/01/02 08:00:28;;;;;;;9.57;6.47;;;;;;;;;;4192334;34;20109;-60
2021/01/02 08:03:01;;;;;;;7.75;6.40;;;;;;;;;;4192479;34;20103;-60
2021/01/02 08:05:27;;;;;;;6.85;5.85;;;;;;;;;;4192109;34;20202;-59
2021/01/02 08:07:57;;;;;;;7.32;5.80;;;;;;;;;;4192572;34;20534;-59
2021/01/02 08:10:23;;;;;;;8.63;7.00;;;;;;;;;;4192180;34;20234;-59
2021/01/02 08:12:51;;;;;;;11.30;7.75;;;;;;;;;;4192267;34;20109;-61
2021/01/02 08:15:35;;;;;;;10.75;6.97;;;;;;;;;;4192110;34;20110;-59
2021/01/02 08:18:05;;;;;;;8.93;5.70;;;;;;;;;;4192185;34;20130;-59
2021/01/02 08:20:31;;;;;;;9.38;6.25;;;;;;;;;;4192010;34;20133;-59
2021/01/02 08:22:58;;;;;;;9.45;6.93;;;;;;;;;;4192231;34;20522;-59
2021/01/02 08:25:24;;;;;;;7.70;6.90;;;;;;;;;;4192305;34;20194;-59
2021/01/02 08:27:49;;;;;;;8.57;7.22;;;;;;;;;;4168122;34;20097;-61
2021/01/02 08:30:16;;;;;;;9.23;7.40;;;;;;;;;;4191988;34;20197;-59
2021/01/02 08:32:50;;;;;;;9.48;7.70;;;;;;;;;;4192344;34;20130;-60
2021/01/02 08:35:38;;;;;;;8.57;6.93;;;;;;;;;;4179803;34;20494;-60
2021/01/02 08:38:08;;;;;;;8.60;6.85;;;;;;;;;;4192045;34;20113;-59
2021/01/02 08:40:41;;;;;;;9.48;8.57;;;;;;;;;;4191823;34;20605;-60
2021/01/02 08:43:07;;;;;;;12.13;7.32;;;;;;;;;;4192112;34;20170;-60
2021/01/02 08:45:33;;;;;;;10.35;7.10;;;;;;;;;;4179153;34;20204;-60
2021/01/02 08:48:12;;;;;;;8.65;6.93;;;;;;;;;;4179419;34;20101;-61
2021/01/02 08:50:39;;;;;;;9.68;8.48;;;;;;;;;;4191849;34;20563;-60
2021/01/02 08:53:05;;;;;;;11.12;7.80;;;;;;;;;;4191865;34;20117;-60
2021/01/02 08:55:31;;;;;;;11.88;7.25;;;;;;;;;;4191478;34;20515;-60
2021/01/02 08:57:57;;;;;;;9.98;7.30;;;;;;;;;;4179006;34;20106;-60
2021/01/02 09:00:23;;;;;;;9.55;7.25;;;;;;;;;;4191645;34;20128;-59
2021/01/02 09:02:52;;;;;;;8.10;6.85;;;;;;;;;;4191647;34;20607;-61
2021/01/02 09:05:25;;;;;;;8.20;6.75;;;;;;;;;;4191385;34;20095;-60
2021/01/02 09:07:58;;;;;;;12.77;6.55;;;;;;;;;;4191073;34;20116;-60
2021/01/02 09:10:31;;;;;;;10.20;6.85;;;;;;;;;;4194109;34;20117;-59
2021/01/02 09:13:10;;;;;;;12.85;7.22;;;;;;;;;;4203222;34;20110;-61
2021/01/02 09:16:01;;;;;;;8.88;7.10;;;;;;;;;;4204428;34;20462;-60
2021/01/02 09:18:30;;;;;;;10.73;9.20;;;;;;;;;;4204096;34;20212;-61
2021/01/02 09:20:56;;;;;;;10.93;6.75;;;;;;;;;;4199477;34;20118;-60
2021/01/02 09:23:49;;;;;;;11.75;7.43;;;;;;;;;;4204897;34;20128;-59
2021/01/02 09:26:31;;;;;;;8.90;7.05;;;;;;;;;;4189801;34;20141;-60
2021/01/02 09:28:58;;;;;;;12.80;7.10;;;;;;;;;;4193068;34;20086;-67
2021/01/02 09:31:24;;;;;;;21.27;8.05;;;;;;;;;;4205277;34;20120;-60
2021/01/02 09:33:50;;;;;;;9.45;6.50;;;;;;;;;;4205078;34;20126;-63
2021/01/02 09:36:17;;;;;;;10.35;6.80;;;;;;;;;;4205226;34;20654;-61
2021/01/02 09:38:43;;;;;;;9.70;6.65;;;;;;;;;;4204527;34;20530;-61
2021/01/02 09:41:10;;;;;;;8.80;7.12;;;;;;;;;;4192461;34;20233;-61
2021/01/02 09:43:36;;;;;;;11.23;6.85;;;;;;;;;;4205293;34;20431;-61
2021/01/02 09:46:03;;;;;;;7.60;6.80;;;;;;;;;;4204698;34;20150;-61
2021/01/02 09:48:29;;;;;;;9.15;6.70;;;;;;;;;;4205482;34;20098;-62
2021/01/02 09:50:55;;;;;;;9.70;7.28;;;;;;;;;;4192473;34;20147;-61
2021/01/02 09:53:21;;;;;;;10.68;7.25;;;;;;;;;;4191630;34;20104;-61
2021/01/02 09:55:47;;;;;;;13.93;7.43;;;;;;;;;;4190746;34;20114;-58
2021/01/02 09:58:13;;;;;;;13.77;7.55;;;;;;;;;;4167030;34;20121;-62
2021/01/02 10:00:39;;;;;;;12.30;8.38;;;;;;;;;;4190683;34;20144;-61
2021/01/02 10:03:09;;;;;;;14.85;7.22;;;;;;;;;;4176918;34;20474;-60
2021/01/02 10:05:35;;;;;;;11.80;7.82;;;;;;;;;;4188918;34;20126;-60
2021/01/02 10:08:02;;;;;;;10.48;7.30;;;;;;;;;;4188796;34;20110;-60
2021/01/02 10:10:28;;;;;;;11.82;7.12;;;;;;;;;;4189158;34;20132;-60
2021/01/02 10:12:54;;;;;;;10.48;6.93;;;;;;;;;;4176192;34;20252;-60
2021/01/02 10:15:20;;;;;;;11.60;7.43;;;;;;;;;;4175913;34;20109;-60
2021/01/02 10:17:46;;;;;;;21.65;7.78;;;;;;;;;;4190377;34;20113;-60
2021/01/02 10:20:13;;;;;;;11.23;7.05;;;;;;;;;;4191282;34;20142;-61
2021/01/02 10:22:39;;;;;;;9.40;7.32;;;;;;;;;;4178739;34;20122;-60
2021/01/02 10:25:05;;;;;;;11.43;7.50;;;;;;;;;;4191306;34;20103;-60
2021/01/02 10:27:31;;;;;;;12.27;7.68;;;;;;;;;;4190924;34;20209;-59
2021/01/02 10:29:57;;;;;;;9.45;6.90;;;;;;;;;;4177613;34;20511;-59
2021/01/02 10:32:25;;;;;;;12.45;7.53;;;;;;;;;;4191394;34;20117;-60
2021/01/02 10:34:51;;;;;;;11.30;7.82;;;;;;;;;;4187774;34;20554;-60
2021/01/02 10:37:22;;;;;;;7.47;6.60;;;;;;;;;;4190860;34;20201;-59
2021/01/02 10:39:48;;;;;;;10.52;7.07;;;;;;;;;;4188685;34;20184;-60
2021/01/02 10:42:15;;;;;;;12.40;7.72;;;;;;;;;;4191587;34;20153;-60
2021/01/02 10:44:44;;;;;;;10.68;7.40;;;;;;;;;;4204521;34;20442;-60
2021/01/02 10:47:11;;;;;;;11.40;7.93;;;;;;;;;;4204587;34;20086;-60
2021/01/02 10:49:37;;;;;;;11.60;7.05;;;;;;;;;;4190293;34;20148;-61
2021/01/02 10:52:03;;;;;;;11.73;8.10;;;;;;;;;;4203184;34;20106;-61
2021/01/02 10:54:29;;;;;;;12.37;8.63;;;;;;;;;;4202947;34;20201;-60
2021/01/02 10:56:55;;;;;;;14.93;7.68;;;;;;;;;;4203369;34;20783;-60
2021/01/02 10:59:22;;;;;;;8.95;7.72;;;;;;;;;;4203036;34;20133;-61
2021/01/02 11:01:53;;;;;;;8.75;7.87;;;;;;;;;;4203162;34;20129;-60
2021/01/02 11:04:20;;;;;;;12.60;8.40;;;;;;;;;;4203169;34;20273;-59
2021/01/02 11:06:50;;;;;;;9.48;7.55;;;;;;;;;;4191703;34;20110;-59
2021/01/02 11:09:16;;;;;;;11.55;7.70;;;;;;;;;;4191980;34;20145;-59
2021/01/02 11:11:45;;;;;;;9.25;7.47;;;;;;;;;;4204533;34;20098;-58
2021/01/02 11:14:11;;;;;;;10.15;7.55;;;;;;;;;;4204453;34;20110;-59
2021/01/02 11:16:42;;;;;;;13.32;8.60;;;;;;;;;;4191041;34;20106;-60
2021/01/02 11:19:21;;;;;;;16.33;8.65;;;;;;;;;;4191678;34;20213;-60
2021/01/02 11:21:48;;;;;;;9.32;7.47;;;;;;;;;;4204725;34;20122;-60
2021/01/02 11:24:14;;;;;;;12.57;7.90;;;;;;;;;;4204505;34;20197;-59
2021/01/02 11:26:45;;;;;;;14.65;10.07;;;;;;;;;;4191600;34;20220;-59
2021/01/02 11:29:11;;;;;;;11.32;7.50;;;;;;;;;;4204361;34;20110;-62
2021/01/02 11:31:37;;;;;;;10.38;7.78;;;;;;;;;;4205786;34;20213;-59
2021/01/02 11:34:03;;;;;;;9.48;7.20;;;;;;;;;;4206062;34;20129;-60
2021/01/02 11:36:29;;;;;;;14.15;7.22;;;;;;;;;;4206422;34;20114;-62
2021/01/02 11:38:55;;;;;;;10.48;6.80;;;;;;;;;;4206384;34;20160;-70
2021/01/02 11:41:30;;;;;;;9.75;8.32;;;;;;;;;;4193486;34;20217;-59
2021/01/02 11:43:55;;;;;;;12.52;8.85;;;;;;;;;;4206529;34;20240;-61
2021/01/02 11:46:29;;;;;;;14.02;9.25;;;;;;;;;;4206528;34;20527;-61
2021/01/02 11:48:55;;;;;;;14.60;8.80;;;;;;;;;;4206618;34;21050;-61
2021/01/02 11:51:21;;;;;;;12.43;9.07;;;;;;;;;;4206332;34;20205;-62
2021/01/02 11:53:47;;;;;;;10.13;8.07;;;;;;;;;;4206267;34;20516;-61
2021/01/02 11:56:13;;;;;;;16.92;10.73;;;;;;;;;;4193054;34;20094;-60
2021/01/02 11:58:39;;;;;;;16.65;11.30;;;;;;;;;;4206115;34;20111;-61
2021/01/02 12:01:05;;;;;;;14.48;10.88;;;;;;;;;;4205966;34;20526;-61
2021/01/02 12:03:32;;;;;;;14.65;11.35;;;;;;;;;;4205770;34;20109;-60
2021/01/02 12:05:58;;;;;;;14.05;11.00;;;;;;;;;;4205729;34;20613;-60
2021/01/02 12:08:23;;;;;;;17.70;10.27;;;;;;;;;;4206170;34;20113;-62
2021/01/02 12:10:50;;;;;;;11.63;9.98;;;;;;;;;;4206218;34;20126;-62
2021/01/02 12:13:16;;;;;;;15.23;12.05;;;;;;;;;;4206214;34;20470;-62
2021/01/02 12:15:41;;;;;;;16.85;10.85;;;;;;;;;;4205831;34;20137;-62
2021/01/02 12:18:08;;;;;;;13.52;9.88;;;;;;;;;;4192982;34;20098;-61
2021/01/02 12:20:34;;;;;;;11.75;8.75;;;;;;;;;;4205911;34;20125;-60
2021/01/02 12:23:00;;;;;;;13.15;10.70;;;;;;;;;;4206027;34;20133;-62
2021/01/02 12:25:26;;;;;;;11.38;8.82;;;;;;;;;;4205928;34;20117;-61
2021/01/02 12:27:54;;;;;;;12.07;10.40;;;;;;;;;;4205928;34;20470;-62
2021/01/02 12:30:20;;;;;;;13.43;10.63;;;;;;;;;;4193270;34;20208;-60
2021/01/02 12:32:47;;;;;;;10.95;9.02;;;;;;;;;;4205676;34;20109;-60
2021/01/02 12:35:13;;;;;;;12.57;9.40;;;;;;;;;;4193132;34;20455;-61
2021/01/02 12:37:39;;;;;;;10.77;8.63;;;;;;;;;;4192988;34;20133;-61
2021/01/02 12:40:05;;;;;;;9.65;8.65;;;;;;;;;;4205845;34;20122;-60
2021/01/02 12:42:39;;;;;;;12.68;8.18;;;;;;;;;;4205148;34;20124;-61
2021/01/02 12:45:09;;;;;;;10.18;8.27;;;;;;;;;;4193398;34;20090;-60
2021/01/02 12:47:34;;;;;;;11.93;8.60;;;;;;;;;;4206109;34;20101;-59
2021/01/02 12:50:00;;;;;;;15.32;9.00;;;;;;;;;;4206098;34;20125;-60
2021/01/02 12:52:29;;;;;;;9.70;6.87;;;;;;;;;;4205648;34;20109;-59
2021/01/02 12:54:56;;;;;;;9.23;8.20;;;;;;;;;;4205704;34;20093;-60
2021/01/02 12:57:23;;;;;;;13.75;9.02;;;;;;;;;;4205716;34;20120;-61
2021/01/02 12:59:52;;;;;;;10.20;9.18;;;;;;;;;;4205509;34;20129;-61
2021/01/02 13:02:18;;;;;;;9.55;7.78;;;;;;;;;;4205662;34;20109;-61
2021/01/02 13:04:43;;;;;;;12.30;9.93;;;;;;;;;;4205368;34;20105;-61
2021/01/02 13:07:11;;;;;;;16.92;12.95;;;;;;;;;;4192820;34;20237;-61
2021/01/02 13:09:37;;;;;;;15.80;12.37;;;;;;;;;;4205320;34;20129;-62
2021/01/02 13:12:04;;;;;;;9.10;7.78;;;;;;;;;;4205662;34;20412;-61
2021/01/02 13:14:30;;;;;;;12.30;8.07;;;;;;;;;;4205650;34;20121;-61
2021/01/02 13:16:58;;;;;;;9.90;7.97;;;;;;;;;;4205753;34;20106;-61
2021/01/02 13:19:24;;;;;;;11.50;7.93;;;;;;;;;;4205596;34;20216;-60
2021/01/02 13:21:55;;;;;;;10.20;8.02;;;;;;;;;;4205727;34;20479;-62
2021/01/02 13:24:21;;;;;;;16.55;10.52;;;;;;;;;;4205460;34;20137;-62
2021/01/02 13:26:51;;;;;;;14.55;11.70;;;;;;;;;;4205301;34;20109;-64
2021/01/02 13:29:21;;;;;;;15.02;12.05;;;;;;;;;;4205182;34;20222;-65
2021/01/02 13:31:51;;;;;;;16.35;11.05;;;;;;;;;;4205502;34;20094;-66
2021/01/02 13:34:17;;;;;;;12.63;9.75;;;;;;;;;;4205381;34;20129;-62
2021/01/02 13:36:44;;;;;;;9.50;8.50;;;;;;;;;;4192592;34;20531;-62
2021/01/02 13:39:12;;;;;;;11.02;8.80;;;;;;;;;;4205402;34;20485;-65
2021/01/02 13:41:38;;;;;;;10.55;8.15;;;;;;;;;;4205305;34;20109;-63
2021/01/02 13:44:06;;;;;;;16.83;9.07;;;;;;;;;;4192284;34;20134;-63
2021/01/02 13:46:32;;;;;;;14.50;9.13;;;;;;;;;;4205214;34;20128;-62
2021/01/02 13:48:57;;;;;;;12.60;8.98;;;;;;;;;;4205183;34;20125;-63
2021/01/02 13:51:23;;;;;;;10.27;7.82;;;;;;;;;;4203901;34;20133;-62
2021/01/02 13:53:50;;;;;;;10.35;7.95;;;;;;;;;;4204948;34;20122;-63
2021/01/02 13:56:15;;;;;;;10.48;8.70;;;;;;;;;;4204942;34;20113;-69
2021/01/02 13:58:42;;;;;;;14.57;8.85;;;;;;;;;;4204888;34;20193;-63
2021/01/02 14:01:08;;;;;;;10.00;8.07;;;;;;;;;;4204946;34;20113;-61
2021/01/02 14:03:36;;;;;;;11.68;8.98;;;;;;;;;;4205154;34;20098;-64
2021/01/02 14:06:02;;;;;;;12.73;10.07;;;;;;;;;;4204782;34;20217;-62
2021/01/02 14:08:28;;;;;;;14.70;9.25;;;;;;;;;;4205207;34;20120;-64
2021/01/02 14:10:54;;;;;;;14.48;8.95;;;;;;;;;;4195945;34;20538;-62
2021/01/02 14:13:20;;;;;;;11.40;8.68;;;;;;;;;;4191063;34;20114;-64
2021/01/02 14:15:46;;;;;;;13.85;9.15;;;;;;;;;;4195888;34;20733;-62
2021/01/02 14:18:13;;;;;;;13.27;10.07;;;;;;;;;;4203950;34;20118;-63
2021/01/02 14:20:39;;;;;;;13.07;10.75;;;;;;;;;;4185813;34;20458;-63
2021/01/02 14:23:06;;;;;;;15.55;11.02;;;;;;;;;;4204814;34;20106;-63
2021/01/02 14:25:32;;;;;;;14.50;8.93;;;;;;;;;;4199900;34;20122;-61
2021/01/02 14:27:58;;;;;;;12.00;9.05;;;;;;;;;;4191061;34;20133;-60
2021/01/02 14:30:24;;;;;;;14.85;12.95;;;;;;;;;;4200546;34;20178;-61
2021/01/02 14:32:50;;;;;;;17.58;15.23;;;;;;;;;;4204583;34;20175;-59
2021/01/02 14:35:16;;;;;;;16.60;13.10;;;;;;;;;;4204175;34;20093;-61
2021/01/02 14:37:42;;;;;;;15.95;13.13;;;;;;;;;;4204818;34;20189;-58
2021/01/02 14:40:08;;;;;;;15.10;11.98;;;;;;;;;;4182781;34;20486;-59
2021/01/02 14:42:34;;;;;;;13.27;9.50;;;;;;;;;;4191147;34;20117;-59
2021/01/02 14:45:00;;;;;;;13.60;10.15;;;;;;;;;;4198873;34;20222;-60
2021/01/02 14:47:25;;;;;;;10.77;9.00;;;;;;;;;;4204665;34;20526;-60
2021/01/02 14:49:51;;;;;;;12.02;9.63;;;;;;;;;;4204199;34;20648;-61
2021/01/02 14:52:17;;;;;;;11.40;9.45;;;;;;;;;;4204707;34;20461;-59
2021/01/02 14:54:45;;;;;;;10.52;8.40;;;;;;;;;;4204151;34;20312;-59